Weather at Tungubakkar Airport

Public forecast

Using degrees Celsius for public forecast. Weather courtesy of forecast.io.

Closest aviation weather report (METAR) to Tungubakkar Airport

Closest report is Reykjavik Airport, 6.8 nm (12.6 km) WSW. Retrieved 2021/06/19 01:00 UTC (47 minutes ago):

BIRK 190100Z 09003KT 070V130 9999 SCT033 OVC067 07/05 Q1011

Closest aviation forecast (TAF) to Tungubakkar Airport

Closest forecast is Reykjavik Airport, 6.8 nm (12.6 km) WSW. Retrieved 2021-06-19 03:06 UTC (0 seconds ago):

TAF BIRK 190103Z 1903/2003 34008KT 9999 SCT025 BKN039 TX09/1914Z TN05/1904Z TEMPO 1903/1912 -RA BKN015 BECMG 1913/1915 33018KT BECMG 2001/2003 33008KT